createdAt,value
2023-12-11T00:01:13.646Z,98358.50
2023-12-11T00:03:41.937Z,98348.78
2023-12-11T00:06:10.495Z,98362.13
2023-12-11T00:08:38.337Z,98371.41
2023-12-11T00:11:06.690Z,98367.22
2023-12-11T00:13:34.627Z,98374.13
2023-12-11T00:16:03.951Z,98378.09
2023-12-11T00:18:32.208Z,98367.44
2023-12-11T00:21:02.409Z,98361.09
2023-12-11T00:23:30.545Z,98355.44
2023-12-11T00:25:58.832Z,98345.84
2023-12-11T00:28:27.148Z,98344.84
2023-12-11T00:30:55.011Z,98317.09
2023-12-11T00:33:25.911Z,98325.47
2023-12-11T00:35:53.867Z,98318.69
2023-12-11T00:38:21.996Z,98326.59
2023-12-11T00:40:49.910Z,98312.00
2023-12-11T00:43:18.030Z,98312.66
2023-12-11T00:45:46.129Z,98309.63
2023-12-11T00:48:14.712Z,98295.78
2023-12-11T00:50:44.523Z,98295.69
2023-12-11T00:53:12.640Z,98289.22
2023-12-11T00:55:40.672Z,98247.19
2023-12-11T00:58:08.547Z,98280.16
2023-12-11T01:00:36.508Z,98277.78
2023-12-11T01:03:05.043Z,98253.13
2023-12-11T01:05:33.223Z,98269.81
2023-12-11T01:08:02.502Z,98233.22
2023-12-11T01:10:30.602Z,98270.69
2023-12-11T01:12:58.517Z,98263.66
2023-12-11T01:15:26.842Z,98267.56
2023-12-11T01:17:55.029Z,98266.03
2023-12-11T01:20:23.246Z,98267.63
2023-12-11T01:22:51.205Z,98266.03
2023-12-11T01:25:20.602Z,98264.66
2023-12-11T01:27:48.535Z,98271.75
2023-12-11T01:30:16.592Z,98275.63
2023-12-11T01:32:44.529Z,98274.69
2023-12-11T01:35:12.468Z,98289.78
2023-12-11T01:37:40.433Z,98290.44
2023-12-11T01:40:10.191Z,98276.06
2023-12-11T01:42:39.553Z,98268.94
2023-12-11T01:45:08.417Z,98272.16
2023-12-11T01:47:36.521Z,98261.00
2023-12-11T01:50:04.726Z,98247.34
2023-12-11T01:52:32.747Z,98243.31
2023-12-11T01:55:00.841Z,98228.00
2023-12-11T01:57:28.977Z,98203.38
2023-12-11T01:59:59.000Z,98197.84
2023-12-11T02:02:27.072Z,98184.50
2023-12-11T02:04:55.425Z,98169.03
2023-12-11T02:07:23.616Z,98155.38
2023-12-11T02:09:51.718Z,98137.38
2023-12-11T02:12:19.702Z,98129.94
2023-12-11T02:14:47.571Z,98108.59
2023-12-11T02:17:16.959Z,98094.91
2023-12-11T02:19:44.921Z,98082.94
2023-12-11T02:22:13.216Z,98061.81
2023-12-11T02:24:49.404Z,98056.72
2023-12-11T02:27:18.783Z,98066.69
2023-12-11T02:29:46.702Z,98057.53
2023-12-11T02:32:17.826Z,98039.31
2023-12-11T02:34:48.828Z,97990.81
2023-12-11T02:37:17.076Z,98008.88
2023-12-11T02:39:46.706Z,98003.13
2023-12-11T02:42:14.734Z,97986.16
2023-12-11T02:44:43.984Z,97985.16
2023-12-11T02:47:11.925Z,97979.16
2023-12-11T02:49:40.114Z,97985.63
2023-12-11T02:52:08.340Z,97969.25
2023-12-11T02:54:36.272Z,97973.09
2023-12-11T02:57:04.230Z,97970.78
2023-12-11T02:59:32.308Z,97959.69
2023-12-11T03:02:01.644Z,97962.38
2023-12-11T03:04:29.942Z,97955.84
2023-12-11T03:06:58.017Z,97952.22
2023-12-11T03:09:25.931Z,97936.13
2023-12-11T03:11:55.150Z,97949.53
2023-12-11T03:14:22.956Z,97928.25
2023-12-11T03:16:50.919Z,97909.63
2023-12-11T03:19:20.307Z,97904.41
2023-12-11T03:21:48.314Z,97905.56
2023-12-11T03:24:16.228Z,97892.88
2023-12-11T03:26:44.179Z,97883.50
2023-12-11T03:29:12.294Z,97884.50
2023-12-11T03:31:40.934Z,97877.56
2023-12-11T03:34:08.985Z,97865.63
2023-12-11T03:36:38.416Z,97858.63
2023-12-11T03:39:08.720Z,97851.97
2023-12-11T03:41:36.648Z,97848.63
2023-12-11T03:44:04.685Z,97858.09
2023-12-11T03:46:32.552Z,97863.84
2023-12-11T03:49:00.549Z,97883.47
2023-12-11T03:51:28.451Z,97899.63
2023-12-11T03:53:58.322Z,97916.84
2023-12-11T03:56:26.553Z,97928.53
2023-12-11T03:58:54.498Z,97949.91
2023-12-11T04:01:22.737Z,97948.56
2023-12-11T04:03:50.805Z,97972.63
2023-12-11T04:06:18.891Z,98032.59
2023-12-11T04:08:46.770Z,98025.81
2023-12-11T04:11:16.089Z,98041.44
2023-12-11T04:13:43.991Z,98046.03
2023-12-11T04:16:11.998Z,98045.03
2023-12-11T04:18:40.757Z,98000.84
2023-12-11T04:21:09.508Z,98027.81
2023-12-11T04:23:37.576Z,98024.91
2023-12-11T04:26:06.237Z,98023.63
2023-12-11T04:28:35.513Z,98031.53
2023-12-11T04:31:03.518Z,98028.69
2023-12-11T04:33:34.185Z,98021.69
2023-12-11T04:36:02.249Z,98027.72
2023-12-11T04:38:30.479Z,98027.41
2023-12-11T04:40:58.824Z,97998.56
2023-12-11T04:43:29.128Z,98044.31
2023-12-11T04:46:01.037Z,98041.72
2023-12-11T04:48:30.271Z,97997.00
2023-12-11T04:50:58.233Z,98038.16
2023-12-11T04:53:26.152Z,98034.38
2023-12-11T04:55:54.223Z,98032.00
2023-12-11T04:58:22.486Z,98022.38
2023-12-11T05:00:50.600Z,98006.28
2023-12-11T05:03:20.129Z,98008.34
2023-12-11T05:05:48.139Z,98004.47
2023-12-11T05:08:16.067Z,98005.41
2023-12-11T05:10:44.262Z,97993.13
2023-12-11T05:13:12.348Z,97995.88
2023-12-11T05:15:40.354Z,97989.97
2023-12-11T05:18:08.472Z,97978.69
2023-12-11T05:20:37.802Z,97970.97
2023-12-11T05:23:06.014Z,97903.56
2023-12-11T05:25:34.042Z,97948.28
2023-12-11T05:28:01.992Z,97936.44
2023-12-11T05:30:30.147Z,97910.91
2023-12-11T05:32:58.434Z,97880.72
2023-12-11T05:35:26.721Z,97872.41
2023-12-11T05:37:59.710Z,97866.19
2023-12-11T05:40:28.024Z,97858.22
2023-12-11T05:42:55.913Z,97841.59
2023-12-11T05:45:23.930Z,97837.00
2023-12-11T05:47:51.854Z,97821.63
2023-12-11T05:50:20.594Z,97833.84
2023-12-11T05:52:48.899Z,97847.88
2023-12-11T05:55:18.995Z,97830.75
2023-12-11T05:57:48.732Z,97827.13
2023-12-11T06:00:17.881Z,97832.56
2023-12-11T06:02:45.660Z,97834.16
2023-12-11T06:05:14.204Z,97836.75
2023-12-11T06:07:42.346Z,97849.94
2023-12-11T06:10:10.504Z,97843.66
2023-12-11T06:12:39.834Z,97845.09
2023-12-11T06:15:08.612Z,97841.16
2023-12-11T06:17:36.672Z,97829.63
2023-12-11T06:20:06.074Z,97844.69
2023-12-11T06:22:34.405Z,97828.28
2023-12-11T06:25:03.474Z,97812.69
2023-12-11T06:27:31.947Z,97828.78
2023-12-11T06:30:01.524Z,97795.50
2023-12-11T06:32:29.828Z,97808.44
2023-12-11T06:34:57.846Z,97796.72
2023-12-11T06:37:25.866Z,97807.59
2023-12-11T06:39:54.202Z,97797.41
2023-12-11T06:42:22.085Z,97822.34
2023-12-11T06:44:50.309Z,97818.94
2023-12-11T06:47:19.679Z,97823.91
2023-12-11T06:49:48.194Z,97830.44
2023-12-11T06:52:16.992Z,97830.75
2023-12-11T06:54:45.165Z,97822.16
2023-12-11T06:57:13.238Z,97820.28
2023-12-11T06:59:41.130Z,97829.13
2023-12-11T07:02:09.225Z,97824.84
2023-12-11T07:04:39.216Z,97818.53
2023-12-11T07:07:08.109Z,97823.50
2023-12-11T07:09:36.600Z,97812.41
2023-12-11T07:12:05.391Z,97841.34
2023-12-11T07:14:33.315Z,97828.34
2023-12-11T07:17:01.301Z,97823.38
2023-12-11T07:19:29.590Z,97836.91
2023-12-11T07:21:58.986Z,97826.44
2023-12-11T07:24:26.882Z,97836.28
2023-12-11T07:26:54.743Z,97853.69
2023-12-11T07:29:23.534Z,97863.00
2023-12-11T07:31:51.622Z,97847.09
2023-12-11T07:34:23.040Z,97859.06
2023-12-11T07:36:52.763Z,97873.09
2023-12-11T07:39:22.128Z,97858.75
2023-12-11T07:41:49.982Z,97852.53
2023-12-11T07:44:17.881Z,97863.16
2023-12-11T07:46:45.767Z,97863.94
2023-12-11T07:49:15.302Z,97838.38
2023-12-11T07:51:44.406Z,97880.41
2023-12-11T07:54:13.385Z,97878.91
2023-12-11T07:56:42.880Z,97885.13
2023-12-11T07:59:13.115Z,97899.41
2023-12-11T08:01:41.142Z,97906.94
2023-12-11T08:04:09.446Z,97908.22
2023-12-11T08:06:41.991Z,97920.97
2023-12-11T08:09:10.300Z,97919.97
2023-12-11T08:11:38.505Z,97935.25
2023-12-11T08:14:07.773Z,97935.16
2023-12-11T08:16:35.770Z,97946.75
2023-12-11T08:19:04.023Z,97943.69
2023-12-11T08:21:32.151Z,97961.88
2023-12-11T08:24:00.360Z,97972.59
2023-12-11T08:26:28.281Z,97970.00
2023-12-11T08:28:59.069Z,97963.91
2023-12-11T08:31:29.639Z,97987.81
2023-12-11T08:33:57.633Z,97994.25
2023-12-11T08:36:25.572Z,97989.06
2023-12-11T08:38:53.805Z,98005.34
2023-12-11T08:41:21.657Z,98011.56
2023-12-11T08:43:49.499Z,98027.63
2023-12-11T08:46:17.506Z,98049.69
2023-12-11T08:48:47.393Z,98052.75
2023-12-11T08:51:15.453Z,98072.94
2023-12-11T08:53:43.347Z,98083.00
2023-12-11T08:56:12.001Z,98091.03
2023-12-11T08:58:40.148Z,98081.19
2023-12-11T09:01:08.306Z,98102.00
2023-12-11T09:03:36.317Z,98105.59
2023-12-11T09:06:06.269Z,98117.00
2023-12-11T09:08:34.192Z,98131.16
2023-12-11T09:11:02.079Z,98134.41
2023-12-11T09:13:30.524Z,98152.88
2023-12-11T09:15:58.669Z,98161.78
2023-12-11T09:18:27.063Z,98187.09
2023-12-11T09:20:55.102Z,98195.69
2023-12-11T09:23:24.415Z,98206.44
2023-12-11T09:25:52.461Z,98204.28
2023-12-11T09:28:20.454Z,98215.03
2023-12-11T09:30:48.855Z,98237.41
2023-12-11T09:33:16.852Z,98234.81
2023-12-11T09:35:45.280Z,98244.53
2023-12-11T09:38:13.301Z,98243.63
2023-12-11T09:40:42.673Z,98241.03
2023-12-11T09:43:11.110Z,98241.13
2023-12-11T09:45:40.371Z,98249.13
2023-12-11T09:48:14.434Z,98249.03
2023-12-11T09:50:43.495Z,98263.63
2023-12-11T09:53:12.115Z,98271.09
2023-12-11T09:55:39.988Z,98274.38
2023-12-11T09:58:10.310Z,98284.88
2023-12-11T10:00:38.568Z,98292.34
2023-12-11T10:03:09.327Z,98293.69
2023-12-11T10:05:38.513Z,98308.97
2023-12-11T10:08:06.747Z,98300.13
2023-12-11T10:10:35.332Z,98295.41
2023-12-11T10:13:04.046Z,98284.44
2023-12-11T10:15:34.742Z,98230.84
2023-12-11T10:18:08.339Z,98286.78
2023-12-11T10:20:37.889Z,98277.72
2023-12-11T10:23:24.552Z,98287.22
2023-12-11T10:25:54.888Z,98313.94
2023-12-11T10:28:24.996Z,98349.25
2023-12-11T10:30:56.525Z,98363.38
2023-12-11T10:33:26.442Z,98399.56
2023-12-11T10:35:55.491Z,98400.91
2023-12-11T10:38:23.963Z,98508.50
2023-12-11T10:40:54.202Z,98550.78
2023-12-11T10:43:22.407Z,98599.56
2023-12-11T10:45:52.084Z,98642.41
2023-12-11T10:48:23.213Z,98651.13
2023-12-11T10:50:51.870Z,98688.44
2023-12-11T10:53:20.232Z,98698.25
2023-12-11T10:55:49.220Z,98719.66
2023-12-11T10:58:17.576Z,98725.38
2023-12-11T11:00:47.577Z,98747.88
2023-12-11T11:03:15.996Z,98726.78
2023-12-11T11:05:45.862Z,98734.22
2023-12-11T11:08:25.889Z,98722.53
2023-12-11T11:10:59.165Z,98706.25
2023-12-11T11:13:33.348Z,98697.91
2023-12-11T11:16:01.566Z,98689.94
2023-12-11T11:18:29.725Z,98680.53
2023-12-11T11:21:12.219Z,98612.63
2023-12-11T11:23:44.700Z,98681.78
2023-12-11T11:26:34.698Z,98706.69
2023-12-11T11:29:02.688Z,98710.91
2023-12-11T11:31:52.247Z,98761.78
2023-12-11T11:34:45.487Z,98843.31
2023-12-11T11:37:18.828Z,98913.53
2023-12-11T11:40:05.682Z,98994.53
2023-12-11T11:42:36.596Z,99060.19
2023-12-11T11:45:06.474Z,99113.03
2023-12-11T11:47:35.683Z,99166.88
2023-12-11T11:50:08.622Z,99269.97
2023-12-11T11:52:40.327Z,99384.28
2023-12-11T11:55:13.519Z,99586.28
2023-12-11T11:57:42.093Z,99609.94
2023-12-11T12:00:10.788Z,99650.72
2023-12-11T12:02:38.892Z,99668.09
2023-12-11T12:05:11.578Z,99694.72
2023-12-11T12:07:42.245Z,99708.78
2023-12-11T12:10:14.118Z,99703.19
2023-12-11T12:12:42.110Z,99699.59
2023-12-11T12:15:11.681Z,99692.16
2023-12-11T12:17:40.522Z,99691.16
2023-12-11T12:20:11.942Z,99693.75
2023-12-11T12:22:42.892Z,99678.75
2023-12-11T12:25:16.338Z,99680.75
2023-12-11T12:27:45.266Z,99686.78
2023-12-11T12:30:13.381Z,99680.16
2023-12-11T12:32:41.354Z,99684.72
2023-12-11T12:35:10.855Z,99676.97
2023-12-11T12:37:39.702Z,99683.53
2023-12-11T12:40:10.764Z,99681.94
2023-12-11T12:42:39.066Z,99675.06
2023-12-11T12:45:08.514Z,99673.69
2023-12-11T12:47:46.650Z,99676.91
2023-12-11T12:50:21.368Z,99698.53
2023-12-11T12:52:49.212Z,99699.34
2023-12-11T12:55:18.758Z,99701.69
2023-12-11T12:57:46.871Z,99701.50
2023-12-11T13:00:21.505Z,99700.13
2023-12-11T13:02:50.338Z,99683.44
2023-12-11T13:05:18.035Z,99697.56
2023-12-11T13:07:59.144Z,99702.31
2023-12-11T13:10:28.385Z,99642.00
2023-12-11T13:12:56.189Z,99698.31
2023-12-11T13:15:24.035Z,99701.50
2023-12-11T13:17:54.890Z,99688.88
2023-12-11T13:20:22.868Z,99617.44
2023-12-11T13:22:50.730Z,99671.16
2023-12-11T13:25:18.599Z,99681.75
2023-12-11T13:27:48.529Z,99672.00
2023-12-11T13:30:18.282Z,99689.13
2023-12-11T13:32:46.133Z,99684.72
2023-12-11T13:35:14.023Z,99670.91
2023-12-11T13:37:41.766Z,99664.88
2023-12-11T13:40:12.349Z,99654.66
2023-12-11T13:42:40.929Z,99647.81
2023-12-11T13:45:11.094Z,99628.63
2023-12-11T13:47:39.623Z,99623.88
2023-12-11T13:50:10.026Z,99623.84
2023-12-11T13:52:37.885Z,99610.63
2023-12-11T13:55:06.460Z,99561.34
2023-12-11T13:57:34.921Z,99559.31
2023-12-11T14:00:02.743Z,99582.66
2023-12-11T14:02:59.145Z,99598.28
2023-12-11T14:05:20.699Z,99579.47
2023-12-11T14:07:50.114Z,99587.84
2023-12-11T14:10:18.095Z,99586.25
2023-12-11T14:12:46.303Z,99579.25
2023-12-11T14:15:14.060Z,99577.84
2023-12-11T14:17:43.276Z,99579.88
2023-12-11T14:20:12.911Z,99619.66
2023-12-11T14:22:41.294Z,99636.75
2023-12-11T14:25:10.191Z,99679.94
2023-12-11T14:27:38.167Z,99701.53
2023-12-11T14:30:06.999Z,99731.69
2023-12-11T14:32:36.465Z,99765.09
2023-12-11T14:35:06.830Z,99803.75
2023-12-11T14:37:35.066Z,99836.44
2023-12-11T14:40:03.294Z,99839.94
2023-12-11T14:42:32.361Z,99876.66
2023-12-11T14:45:00.449Z,99899.16
2023-12-11T14:47:28.570Z,99898.34
2023-12-11T14:49:57.206Z,99866.06
2023-12-11T14:52:27.318Z,99902.59
2023-12-11T14:54:55.321Z,99919.97
2023-12-11T14:57:23.104Z,99927.97
2023-12-11T14:59:51.028Z,99928.41
2023-12-11T15:02:19.031Z,99954.41
2023-12-11T15:04:46.934Z,99925.78
2023-12-11T15:07:14.656Z,99954.34
2023-12-11T15:09:43.814Z,99969.16
2023-12-11T15:12:11.595Z,99971.63
2023-12-11T15:14:39.897Z,99973.34
2023-12-11T15:17:07.649Z,99987.53
2023-12-11T15:19:35.438Z,99999.13
2023-12-11T15:22:03.348Z,99998.06
2023-12-11T15:24:31.454Z,100000.66
2023-12-11T15:27:00.616Z,99999.31
2023-12-11T15:29:28.305Z,99995.13
2023-12-11T15:31:56.632Z,99988.78
2023-12-11T15:34:25.972Z,99948.13
2023-12-11T15:36:53.917Z,99970.41
2023-12-11T15:39:24.776Z,99923.44
2023-12-11T15:41:52.612Z,99956.25
2023-12-11T15:44:22.602Z,99934.09
2023-12-11T15:46:50.562Z,99922.66
2023-12-11T15:49:19.459Z,99910.28
2023-12-11T15:51:52.674Z,99867.97
2023-12-11T15:54:20.703Z,99894.72
2023-12-11T15:56:48.637Z,99883.56
2023-12-11T15:59:16.469Z,99850.13
2023-12-11T16:01:46.628Z,99813.06
2023-12-11T16:04:14.529Z,99777.06
2023-12-11T16:06:42.397Z,99739.47
2023-12-11T16:09:12.244Z,99700.38
2023-12-11T16:11:40.645Z,99671.63
2023-12-11T16:14:08.458Z,99642.06
2023-12-11T16:16:38.463Z,99615.94
2023-12-11T16:19:08.810Z,99615.91
2023-12-11T16:21:39.135Z,99602.13
2023-12-11T16:24:07.691Z,99587.72
2023-12-11T16:26:35.737Z,99572.31
2023-12-11T16:29:03.482Z,99541.34
2023-12-11T16:31:31.678Z,99501.59
2023-12-11T16:34:00.503Z,99474.44
2023-12-11T16:36:30.327Z,99450.88
2023-12-11T16:38:58.121Z,99297.38
2023-12-11T16:41:26.993Z,99258.59
2023-12-11T16:43:55.458Z,99170.88
2023-12-11T16:46:23.331Z,99162.47
2023-12-11T16:48:51.609Z,99149.66
2023-12-11T16:51:19.622Z,99149.69
2023-12-11T16:53:49.148Z,99142.47
2023-12-11T16:56:17.104Z,99128.50
2023-12-11T16:58:46.064Z,99091.34
2023-12-11T17:01:14.850Z,99109.31
2023-12-11T17:03:43.246Z,99111.31
2023-12-11T17:06:16.226Z,99115.09
2023-12-11T17:08:43.981Z,99109.94
2023-12-11T17:11:13.436Z,99103.13
2023-12-11T17:13:42.353Z,99098.75
2023-12-11T17:16:10.608Z,99093.75
2023-12-11T17:18:38.504Z,99098.16
2023-12-11T17:21:08.343Z,99089.34
2023-12-11T17:23:38.369Z,99050.63
2023-12-11T17:26:06.604Z,99072.19
2023-12-11T17:28:36.062Z,99073.78
2023-12-11T17:31:03.901Z,99061.19
2023-12-11T17:33:32.355Z,99052.19
2023-12-11T17:36:00.217Z,99035.41
2023-12-11T17:38:28.089Z,98983.72
2023-12-11T17:40:55.821Z,99021.22
2023-12-11T17:43:24.302Z,99023.00
2023-12-11T17:45:53.496Z,99014.06
2023-12-11T17:48:21.425Z,99014.44
2023-12-11T17:50:49.574Z,99015.44
2023-12-11T17:53:17.288Z,99008.63
2023-12-11T17:55:45.245Z,98999.84
2023-12-11T17:58:13.087Z,99002.41
2023-12-11T18:00:40.842Z,99001.63
2023-12-11T18:03:10.010Z,99024.22
2023-12-11T18:05:39.423Z,99017.03
2023-12-11T18:08:07.284Z,99021.66
2023-12-11T18:10:35.141Z,99011.25
2023-12-11T18:13:02.984Z,99017.44
2023-12-11T18:15:31.095Z,99019.25
2023-12-11T18:17:58.911Z,99015.06
2023-12-11T18:20:28.109Z,99025.06
2023-12-11T18:22:55.853Z,99015.47
2023-12-11T18:25:23.950Z,99035.25
2023-12-11T18:27:51.786Z,99036.03
2023-12-11T18:30:19.682Z,99031.03
2023-12-11T18:32:47.575Z,99039.63
2023-12-11T18:35:15.525Z,99051.41
2023-12-11T18:37:44.893Z,99039.84
2023-12-11T18:40:15.021Z,99052.22
2023-12-11T18:42:44.579Z,99043.22
2023-12-11T18:45:13.036Z,99046.59
2023-12-11T18:47:40.856Z,99042.81
2023-12-11T18:50:09.230Z,99037.25
2023-12-11T18:52:37.053Z,99047.63
2023-12-11T18:55:06.970Z,99009.91
2023-12-11T18:57:35.112Z,99051.41
2023-12-11T19:00:02.967Z,99055.63
2023-12-11T19:02:31.058Z,99055.00
2023-12-11T19:04:58.947Z,99067.19
2023-12-11T19:07:27.165Z,99066.78
2023-12-11T19:09:55.036Z,99069.78
2023-12-11T19:12:24.132Z,99073.78
2023-12-11T19:14:51.915Z,99072.78
2023-12-11T19:17:19.698Z,99076.75
2023-12-11T19:19:47.512Z,99078.16
2023-12-11T19:22:15.310Z,99084.13
2023-12-11T19:24:43.141Z,99086.13
2023-12-11T19:27:10.903Z,99084.13
2023-12-11T19:29:40.233Z,99078.97
2023-12-11T19:32:09.035Z,99071.78
2023-12-11T19:34:36.975Z,99063.19
2023-12-11T19:37:05.510Z,99054.81
2023-12-11T19:39:33.391Z,99050.44
2023-12-11T19:42:01.181Z,99049.03
2023-12-11T19:44:29.026Z,99046.22
2023-12-11T19:46:58.344Z,99046.00
2023-12-11T19:49:27.959Z,99049.22
2023-12-11T19:51:56.146Z,99053.41
2023-12-11T19:54:23.905Z,99057.41
2023-12-11T19:56:51.673Z,99061.00
2023-12-11T19:59:20.210Z,99058.22
2023-12-11T20:01:48.201Z,99076.19
2023-12-11T20:04:17.802Z,99069.41
2023-12-11T20:06:45.612Z,99074.97
2023-12-11T20:09:13.822Z,99067.00
2023-12-11T20:11:42.329Z,99047.81
2023-12-11T20:14:10.102Z,99019.06
2023-12-11T20:16:37.875Z,99053.75
2023-12-11T20:19:05.785Z,99056.19
2023-12-11T20:21:35.378Z,98978.34
2023-12-11T20:24:03.129Z,99047.59
2023-12-11T20:26:31.112Z,99043.41
2023-12-11T20:28:59.622Z,99044.59
2023-12-11T20:31:28.736Z,99040.00
2023-12-11T20:33:56.636Z,99047.00
2023-12-11T20:36:25.025Z,99035.38
2023-12-11T20:38:54.961Z,99027.59
2023-12-11T20:41:23.587Z,99026.94
2023-12-11T20:43:52.617Z,99024.75
2023-12-11T20:46:24.631Z,99024.94
2023-12-11T20:48:53.770Z,99037.38
2023-12-11T20:51:23.093Z,99031.75
2023-12-11T20:53:52.753Z,99027.38
2023-12-11T20:56:22.797Z,99020.75
2023-12-11T20:58:51.527Z,99034.16
2023-12-11T21:01:30.191Z,99034.34
2023-12-11T21:03:59.638Z,99044.50
2023-12-11T21:06:28.747Z,99045.94
2023-12-11T21:08:57.151Z,99034.72
2023-12-11T21:11:27.134Z,99031.38
2023-12-11T21:13:55.002Z,99028.34
2023-12-11T21:16:22.930Z,99025.72
2023-12-11T21:18:51.787Z,99032.13
2023-12-11T21:21:21.041Z,99036.75
2023-12-11T21:23:49.350Z,99044.94
2023-12-11T21:26:17.467Z,99055.72
2023-12-11T21:28:47.336Z,99018.78
2023-12-11T21:31:19.519Z,99059.50
2023-12-11T21:33:47.520Z,99061.13
2023-12-11T21:36:15.451Z,99071.69
2023-12-11T21:38:45.191Z,99081.13
2023-12-11T21:41:15.345Z,99080.13
2023-12-11T21:43:44.347Z,99078.69
2023-12-11T21:46:14.474Z,99059.56
2023-12-11T21:48:44.829Z,99089.50
2023-12-11T21:51:15.950Z,99082.31
2023-12-11T21:53:44.378Z,99078.34
2023-12-11T21:56:12.242Z,99085.72
2023-12-11T21:58:40.178Z,99086.13
2023-12-11T22:01:08.315Z,99073.75
2023-12-11T22:03:37.890Z,99071.75
2023-12-11T22:06:06.051Z,99067.16
2023-12-11T22:08:33.778Z,99081.34
2023-12-11T22:11:01.614Z,99026.25
2023-12-11T22:13:30.147Z,99075.38
2023-12-11T22:15:58.689Z,99072.16
2023-12-11T22:18:26.816Z,99067.75
2023-12-11T22:20:55.990Z,99070.34
2023-12-11T22:23:23.812Z,99062.13
2023-12-11T22:25:51.601Z,99060.94
2023-12-11T22:28:19.400Z,99066.34
2023-12-11T22:30:47.655Z,99056.97
2023-12-11T22:33:15.435Z,99051.56
2023-12-11T22:35:43.284Z,99059.75
2023-12-11T22:38:13.235Z,99054.75
2023-12-11T22:40:41.373Z,99065.97
2023-12-11T22:43:09.215Z,99046.00
2023-12-11T22:45:38.264Z,99073.16
2023-12-11T22:48:07.191Z,99070.91
2023-12-11T22:50:35.023Z,99061.94
2023-12-11T22:53:02.883Z,99062.53
2023-12-11T22:55:32.344Z,99062.72
2023-12-11T22:58:06.403Z,99061.72
2023-12-11T23:00:41.621Z,99070.94
2023-12-11T23:03:09.602Z,99068.53
2023-12-11T23:05:37.505Z,99066.50
2023-12-11T23:08:05.748Z,99024.22
2023-12-11T23:10:35.044Z,99074.50
2023-12-11T23:13:04.253Z,99075.13
2023-12-11T23:15:32.280Z,99070.53
2023-12-11T23:18:00.101Z,99033.59
2023-12-11T23:20:27.962Z,99062.13
2023-12-11T23:22:56.532Z,99072.72
2023-12-11T23:25:24.535Z,99073.34
2023-12-11T23:27:53.722Z,99078.34
2023-12-11T23:30:21.464Z,99067.16
2023-12-11T23:32:49.275Z,99072.34
2023-12-11T23:35:18.251Z,99033.22
2023-12-11T23:37:47.989Z,99066.16
2023-12-11T23:40:17.212Z,99075.75
2023-12-11T23:42:45.644Z,99062.31
2023-12-11T23:45:14.809Z,99061.13
2023-12-11T23:47:43.043Z,99064.53
2023-12-11T23:50:11.548Z,99051.72
2023-12-11T23:52:39.424Z,99041.34
2023-12-11T23:55:08.166Z,99054.50
2023-12-11T23:57:36.523Z,99047.34
